sensor_id;sensor_type;location;lat;lon;timestamp;pressure;altitude;pressure_sealevel;temperature;humidity
74834;BME280;63361;52.384;20.930;2023-04-01T00:01:10;98712.78;;;8.61;100.00
74834;BME280;63361;52.384;20.930;2023-04-01T00:03:37;98711.00;;;8.56;100.00
74834;BME280;63361;52.384;20.930;2023-04-01T00:06:02;98716.44;;;8.65;100.00
74834;BME280;63361;52.384;20.930;2023-04-01T00:08:28;98699.94;;;8.58;100.00
74834;BME280;63361;52.384;20.930;2023-04-01T00:10:54;98704.13;;;8.72;100.00
74834;BME280;63361;52.384;20.930;2023-04-01T00:13:20;98707.91;;;8.71;100.00
74834;BME280;63361;52.384;20.930;2023-04-01T00:15:46;98694.13;;;8.64;100.00
74834;BME280;63361;52.384;20.930;2023-04-01T00:18:11;98706.97;;;8.67;100.00
74834;BME280;63361;52.384;20.930;2023-04-01T00:20:37;98693.03;;;8.65;100.00
74834;BME280;63361;52.384;20.930;2023-04-01T00:23:03;98700.00;;;8.66;100.00
74834;BME280;63361;52.384;20.930;2023-04-01T00:25:28;98692.84;;;8.62;100.00
74834;BME280;63361;52.384;20.930;2023-04-01T00:27:54;98705.56;;;8.70;100.00
74834;BME280;63361;52.384;20.930;2023-04-01T00:30:19;98694.25;;;8.59;100.00
74834;BME280;63361;52.384;20.930;2023-04-01T00:32:44;98701.53;;;8.59;100.00
74834;BME280;63361;52.384;20.930;2023-04-01T00:35:10;98694.56;;;8.58;100.00
74834;BME280;63361;52.384;20.930;2023-04-01T00:37:37;98693.81;;;8.66;100.00
74834;BME280;63361;52.384;20.930;2023-04-01T00:40:06;98680.19;;;8.62;100.00
74834;BME280;63361;52.384;20.930;2023-04-01T00:42:31;98679.88;;;8.64;100.00
74834;BME280;63361;52.384;20.930;2023-04-01T00:44:57;98687.47;;;8.62;100.00
74834;BME280;63361;52.384;20.930;2023-04-01T00:47:24;98681.91;;;8.58;100.00
74834;BME280;63361;52.384;20.930;2023-04-01T00:49:51;98690.66;;;8.72;100.00
74834;BME280;63361;52.384;20.930;2023-04-01T00:52:21;98671.81;;;8.64;100.00
74834;BME280;63361;52.384;20.930;2023-04-01T00:54:50;98671.94;;;8.59;100.00
74834;BME280;63361;52.384;20.930;2023-04-01T00:57:22;98685.59;;;8.71;100.00
74834;BME280;63361;52.384;20.930;2023-04-01T00:59:50;98681.34;;;8.70;100.00
74834;BME280;63361;52.384;20.930;2023-04-01T01:02:18;98676.09;;;8.65;100.00
74834;BME280;63361;52.384;20.930;2023-04-01T01:04:44;98675.97;;;8.70;100.00
74834;BME280;63361;52.384;20.930;2023-04-01T01:10:23;98676.78;;;8.70;100.00
74834;BME280;63361;52.384;20.930;2023-04-01T01:13:13;98676.28;;;8.68;100.00
74834;BME280;63361;52.384;20.930;2023-04-01T01:16:05;98671.81;;;8.64;100.00
74834;BME280;63361;52.384;20.930;2023-04-01T01:18:35;98674.06;;;8.70;100.00
74834;BME280;63361;52.384;20.930;2023-04-01T01:31:37;98664.38;;;8.61;100.00
74834;BME280;63361;52.384;20.930;2023-04-01T01:34:22;98681.16;;;8.66;100.00
74834;BME280;63361;52.384;20.930;2023-04-01T01:37:00;98681.91;;;8.58;100.00
74834;BME280;63361;52.384;20.930;2023-04-01T01:39:28;98686.25;;;8.68;100.00
74834;BME280;63361;52.384;20.930;2023-04-01T01:42:01;98673.22;;;8.61;100.00
74834;BME280;63361;52.384;20.930;2023-04-01T01:44:29;98681.16;;;8.66;100.00
74834;BME280;63361;52.384;20.930;2023-04-01T01:46:56;98661.81;;;8.56;100.00
74834;BME280;63361;52.384;20.930;2023-04-01T01:49:22;98681.50;;;8.73;100.00
74834;BME280;63361;52.384;20.930;2023-04-01T01:51:49;98673.13;;;8.75;100.00
74834;BME280;63361;52.384;20.930;2023-04-01T01:54:16;98669.66;;;8.74;100.00
74834;BME280;63361;52.384;20.930;2023-04-01T01:56:45;98675.78;;;8.66;100.00
74834;BME280;63361;52.384;20.930;2023-04-01T01:59:14;98675.47;;;8.68;100.00
74834;BME280;63361;52.384;20.930;2023-04-01T02:01:43;98677.31;;;8.59;100.00
74834;BME280;63361;52.384;20.930;2023-04-01T02:04:12;98679.41;;;8.62;100.00
74834;BME280;63361;52.384;20.930;2023-04-01T02:06:43;98674.16;;;8.57;100.00
74834;BME280;63361;52.384;20.930;2023-04-01T02:09:11;98659.56;;;8.49;100.00
74834;BME280;63361;52.384;20.930;2023-04-01T02:11:51;98671.31;;;8.62;100.00
74834;BME280;63361;52.384;20.930;2023-04-01T02:16:49;98669.44;;;8.62;100.00
74834;BME280;63361;52.384;20.930;2023-04-01T02:19:18;98661.38;;;8.62;100.00
74834;BME280;63361;52.384;20.930;2023-04-01T02:21:50;98656.16;;;8.66;100.00
74834;BME280;63361;52.384;20.930;2023-04-01T02:24:18;98643.66;;;8.61;100.00
74834;BME280;63361;52.384;20.930;2023-04-01T02:26:48;98653.44;;;8.57;100.00
74834;BME280;63361;52.384;20.930;2023-04-01T02:29:17;98639.91;;;8.40;100.00
74834;BME280;63361;52.384;20.930;2023-04-01T02:31:43;98659.19;;;8.42;100.00
74834;BME280;63361;52.384;20.930;2023-04-01T02:34:09;98632.38;;;8.28;100.00
74834;BME280;63361;52.384;20.930;2023-04-01T02:36:35;98638.16;;;8.35;100.00
74834;BME280;63361;52.384;20.930;2023-04-01T02:39:01;98633.66;;;8.31;100.00
74834;BME280;63361;52.384;20.930;2023-04-01T02:41:29;98622.91;;;8.31;100.00
74834;BME280;63361;52.384;20.930;2023-04-01T02:43:54;98645.41;;;8.35;100.00
74834;BME280;63361;52.384;20.930;2023-04-01T02:46:20;98637.75;;;8.28;100.00
74834;BME280;63361;52.384;20.930;2023-04-01T02:48:45;98641.63;;;8.36;100.00
74834;BME280;63361;52.384;20.930;2023-04-01T02:51:10;98642.44;;;8.36;100.00
74834;BME280;63361;52.384;20.930;2023-04-01T02:53:36;98646.41;;;8.39;100.00
74834;BME280;63361;52.384;20.930;2023-04-01T02:56:01;98645.41;;;8.35;100.00
74834;BME280;63361;52.384;20.930;2023-04-01T02:58:26;98648.59;;;8.37;100.00
74834;BME280;63361;52.384;20.930;2023-04-01T03:00:52;98649.88;;;8.39;100.00
74834;BME280;63361;52.384;20.930;2023-04-01T03:03:17;98647.22;;;8.48;100.00
74834;BME280;63361;52.384;20.930;2023-04-01T03:05:42;98635.66;;;8.39;100.00
74834;BME280;63361;52.384;20.930;2023-04-01T03:08:07;98646.13;;;8.49;100.00
74834;BME280;63361;52.384;20.930;2023-04-01T03:10:33;98647.41;;;8.52;100.00
74834;BME280;63361;52.384;20.930;2023-04-01T03:12:58;98652.03;;;8.60;100.00
74834;BME280;63361;52.384;20.930;2023-04-01T03:15:23;98648.53;;;8.59;100.00
74834;BME280;63361;52.384;20.930;2023-04-01T03:17:49;98657.75;;;8.67;100.00
74834;BME280;63361;52.384;20.930;2023-04-01T03:20:14;98653.31;;;8.71;100.00
74834;BME280;63361;52.384;20.930;2023-04-01T03:22:40;98669.66;;;8.74;100.00
74834;BME280;63361;52.384;20.930;2023-04-01T03:25:06;98664.56;;;8.73;100.00
74834;BME280;63361;52.384;20.930;2023-04-01T03:27:33;98656.81;;;8.71;100.00
74834;BME280;63361;52.384;20.930;2023-04-01T03:29:59;98659.84;;;8.70;100.00
74834;BME280;63361;52.384;20.930;2023-04-01T03:32:25;98672.94;;;8.71;100.00
74834;BME280;63361;52.384;20.930;2023-04-01T03:34:51;98653.13;;;8.59;100.00
74834;BME280;63361;52.384;20.930;2023-04-01T03:37:16;98672.78;;;8.68;100.00
74834;BME280;63361;52.384;20.930;2023-04-01T03:39:42;98665.66;;;8.63;100.00
74834;BME280;63361;52.384;20.930;2023-04-01T03:42:07;98675.47;;;8.68;100.00
74834;BME280;63361;52.384;20.930;2023-04-01T03:44:33;98677.38;;;8.67;100.00
74834;BME280;63361;52.384;20.930;2023-04-01T03:46:59;98667.66;;;8.58;100.00
74834;BME280;63361;52.384;20.930;2023-04-01T03:49:24;98669.56;;;8.57;100.00
74834;BME280;63361;52.384;20.930;2023-04-01T03:51:49;98677.50;;;8.62;100.00
74834;BME280;63361;52.384;20.930;2023-04-01T03:54:15;98672.63;;;8.64;100.00
74834;BME280;63361;52.384;20.930;2023-04-01T03:56:40;98677.88;;;8.69;100.00
74834;BME280;63361;52.384;20.930;2023-04-01T03:59:06;98685.94;;;8.69;100.00
74834;BME280;63361;52.384;20.930;2023-04-01T04:01:32;98687.47;;;8.62;100.00
74834;BME280;63361;52.384;20.930;2023-04-01T04:03:58;98688.94;;;8.68;100.00
74834;BME280;63361;52.384;20.930;2023-04-01T04:06:24;98697.03;;;8.76;100.00
74834;BME280;63361;52.384;20.930;2023-04-01T04:08:50;98691.44;;;8.64;100.00
74834;BME280;63361;52.384;20.930;2023-04-01T04:11:16;98692.41;;;8.68;100.00
74834;BME280;63361;52.384;20.930;2023-04-01T04:13:41;98698.41;;;8.65;100.00
74834;BME280;63361;52.384;20.930;2023-04-01T04:16:07;98685.44;;;8.67;100.00
74834;BME280;63361;52.384;20.930;2023-04-01T04:18:33;98704.59;;;8.66;100.00
74834;BME280;63361;52.384;20.930;2023-04-01T04:20:59;98701.59;;;8.67;100.00
74834;BME280;63361;52.384;20.930;2023-04-01T04:23:24;98692.97;;;8.57;100.00
74834;BME280;63361;52.384;20.930;2023-04-01T04:26:11;98709.28;;;8.60;100.00
74834;BME280;63361;52.384;20.930;2023-04-01T04:28:37;98703.56;;;8.53;100.00
74834;BME280;63361;52.384;20.930;2023-04-01T04:31:03;98702.88;;;8.70;100.00
74834;BME280;63361;52.384;20.930;2023-04-01T04:33:30;98711.88;;;8.74;100.00
74834;BME280;63361;52.384;20.930;2023-04-01T04:35:57;98720.56;;;8.71;100.00
74834;BME280;63361;52.384;20.930;2023-04-01T04:38:23;98720.72;;;8.66;100.00
74834;BME280;63361;52.384;20.930;2023-04-01T04:40:48;98712.13;;;8.55;100.00
74834;BME280;63361;52.384;20.930;2023-04-01T04:43:15;98723.84;;;8.59;100.00
74834;BME280;63361;52.384;20.930;2023-04-01T04:45:41;98732.50;;;8.56;100.00
74834;BME280;63361;52.384;20.930;2023-04-01T04:48:11;98729.81;;;8.56;100.00
74834;BME280;63361;52.384;20.930;2023-04-01T04:50:41;98721.72;;;8.48;100.00
74834;BME280;63361;52.384;20.930;2023-04-01T04:53:09;98726.59;;;8.45;100.00
74834;BME280;63361;52.384;20.930;2023-04-01T04:55:35;98731.88;;;8.51;100.00
74834;BME280;63361;52.384;20.930;2023-04-01T04:58:00;98727.22;;;8.42;100.00
74834;BME280;63361;52.384;20.930;2023-04-01T05:00:25;98726.66;;;8.54;100.00
74834;BME280;63361;52.384;20.930;2023-04-01T05:02:51;98734.97;;;8.44;100.00
74834;BME280;63361;52.384;20.930;2023-04-01T05:05:16;98734.66;;;8.45;100.00
74834;BME280;63361;52.384;20.930;2023-04-01T05:07:41;98725.63;;;8.41;100.00
74834;BME280;63361;52.384;20.930;2023-04-01T05:10:07;98726.25;;;8.38;100.00
74834;BME280;63361;52.384;20.930;2023-04-01T05:12:32;98732.44;;;8.39;100.00
74834;BME280;63361;52.384;20.930;2023-04-01T05:15:02;98734.13;;;8.35;100.00
74834;BME280;63361;52.384;20.930;2023-04-01T05:17:28;98729.84;;;8.34;100.00
74834;BME280;63361;52.384;20.930;2023-04-01T05:19:53;98744.28;;;8.38;100.00
74834;BME280;63361;52.384;20.930;2023-04-01T05:22:18;98734.94;;;8.35;100.00
74834;BME280;63361;52.384;20.930;2023-04-01T05:24:44;98726.94;;;8.30;100.00
74834;BME280;63361;52.384;20.930;2023-04-01T05:27:09;98730.94;;;8.33;100.00
74834;BME280;63361;52.384;20.930;2023-04-01T05:29:34;98728.03;;;8.29;100.00
74834;BME280;63361;52.384;20.930;2023-04-01T05:32:00;98728.03;;;8.29;100.00
74834;BME280;63361;52.384;20.930;2023-04-01T05:34:25;98747.56;;;8.35;100.00
74834;BME280;63361;52.384;20.930;2023-04-01T05:36:50;98729.94;;;8.29;100.00
74834;BME280;63361;52.384;20.930;2023-04-01T05:39:17;98741.91;;;8.36;100.00
74834;BME280;63361;52.384;20.930;2023-04-01T05:41:43;98740.31;;;8.35;100.00
74834;BME280;63361;52.384;20.930;2023-04-01T05:44:11;98719.69;;;8.31;100.00
74834;BME280;63361;52.384;20.930;2023-04-01T05:46:37;98732.28;;;8.44;100.00
74834;BME280;63361;52.384;20.930;2023-04-01T05:49:02;98719.53;;;8.50;100.00
74834;BME280;63361;52.384;20.930;2023-04-01T05:51:27;98742.50;;;8.87;100.00
74834;BME280;63361;52.384;20.930;2023-04-01T05:53:52;98731.38;;;9.10;100.00
74834;BME280;63361;52.384;20.930;2023-04-01T05:56:18;98735.34;;;9.61;100.00
74834;BME280;63361;52.384;20.930;2023-04-01T05:58:46;98731.09;;;10.29;100.00
74834;BME280;63361;52.384;20.930;2023-04-01T06:01:15;98717.16;;;10.91;100.00
74834;BME280;63361;52.384;20.930;2023-04-01T06:03:40;98746.72;;;10.79;100.00
74834;BME280;63361;52.384;20.930;2023-04-01T06:06:15;98755.97;;;10.69;100.00
74834;BME280;63361;52.384;20.930;2023-04-01T06:08:40;98753.91;;;10.14;100.00
74834;BME280;63361;52.384;20.930;2023-04-01T06:11:25;98757.22;;;9.85;100.00
74834;BME280;63361;52.384;20.930;2023-04-01T06:14:28;98758.97;;;9.81;100.00
74834;BME280;63361;52.384;20.930;2023-04-01T06:17:22;98762.78;;;9.98;100.00
74834;BME280;63361;52.384;20.930;2023-04-01T06:20:12;98767.91;;;10.34;100.00
74834;BME280;63361;52.384;20.930;2023-04-01T06:38:54;98774.78;;;11.42;100.00
74834;BME280;63361;52.384;20.930;2023-04-01T06:41:35;98777.03;;;11.69;100.00
74834;BME280;63361;52.384;20.930;2023-04-01T06:44:35;98766.28;;;11.60;100.00
74834;BME280;63361;52.384;20.930;2023-04-01T06:47:25;98770.72;;;11.18;100.00
74834;BME280;63361;52.384;20.930;2023-04-01T06:50:26;98770.34;;;11.37;100.00
74834;BME280;63361;52.384;20.930;2023-04-01T06:53:09;98768.00;;;11.27;100.00
74834;BME280;63361;52.384;20.930;2023-04-01T06:58:17;98772.31;;;11.28;100.00
74834;BME280;63361;52.384;20.930;2023-04-01T07:00:46;98773.94;;;11.50;100.00
74834;BME280;63361;52.384;20.930;2023-04-01T07:03:21;98775.34;;;11.56;100.00
74834;BME280;63361;52.384;20.930;2023-04-01T07:05:51;98774.25;;;11.86;100.00
74834;BME280;63361;52.384;20.930;2023-04-01T07:08:24;98785.47;;;12.18;100.00
74834;BME280;63361;52.384;20.930;2023-04-01T07:10:56;98779.25;;;11.96;100.00
74834;BME280;63361;52.384;20.930;2023-04-01T07:16:20;98766.47;;;11.85;100.00
74834;BME280;63361;52.384;20.930;2023-04-01T07:18:50;98781.25;;;11.87;100.00
74834;BME280;63361;52.384;20.930;2023-04-01T07:21:30;98779.50;;;11.83;100.00
74834;BME280;63361;52.384;20.930;2023-04-01T07:24:04;98791.41;;;12.32;100.00
74834;BME280;63361;52.384;20.930;2023-04-01T07:26:31;98786.13;;;12.36;100.00
74834;BME280;63361;52.384;20.930;2023-04-01T07:28:56;98771.66;;;12.85;100.00
74834;BME280;63361;52.384;20.930;2023-04-01T07:36:39;98777.31;;;14.82;100.00
74834;BME280;63361;52.384;20.930;2023-04-01T07:44:31;98766.91;;;14.84;100.00
74834;BME280;63361;52.384;20.930;2023-04-01T07:52:10;98755.34;;;15.81;100.00
74834;BME280;63361;52.384;20.930;2023-04-01T07:54:49;98769.22;;;15.45;100.00
74834;BME280;63361;52.384;20.930;2023-04-01T07:57:27;98755.94;;;13.72;100.00
74834;BME280;63361;52.384;20.930;2023-04-01T08:05:25;98784.06;;;13.19;100.00
74834;BME280;63361;52.384;20.930;2023-04-01T08:16:01;98777.34;;;13.04;100.00
74834;BME280;63361;52.384;20.930;2023-04-01T08:21:05;98787.13;;;16.12;100.00
74834;BME280;63361;52.384;20.930;2023-04-01T08:23:37;98783.91;;;15.56;100.00
74834;BME280;63361;52.384;20.930;2023-04-01T08:29:18;98795.06;;;13.14;100.00
74834;BME280;63361;52.384;20.930;2023-04-01T08:34:40;98796.41;;;12.42;100.00
74834;BME280;63361;52.384;20.930;2023-04-01T08:37:11;98801.69;;;11.97;100.00
74834;BME280;63361;52.384;20.930;2023-04-01T08:39:40;98779.69;;;11.78;100.00
74834;BME280;63361;52.384;20.930;2023-04-01T08:42:31;98794.75;;;11.49;100.00
74834;BME280;63361;52.384;20.930;2023-04-01T08:45:19;98760.25;;;11.17;100.00
74834;BME280;63361;52.384;20.930;2023-04-01T08:47:54;98801.31;;;11.78;100.00
74834;BME280;63361;52.384;20.930;2023-04-01T08:50:48;98808.59;;;11.86;100.00
74834;BME280;63361;52.384;20.930;2023-04-01T08:53:37;98809.41;;;12.28;100.00
74834;BME280;63361;52.384;20.930;2023-04-01T09:01:41;98797.53;;;14.41;100.00
74834;BME280;63361;52.384;20.930;2023-04-01T09:04:24;98813.78;;;14.01;100.00
74834;BME280;63361;52.384;20.930;2023-04-01T09:06:52;98800.66;;;12.52;100.00
74834;BME280;63361;52.384;20.930;2023-04-01T09:18:08;98814.69;;;12.24;100.00
74834;BME280;63361;52.384;20.930;2023-04-01T09:20:58;98815.47;;;13.32;100.00
74834;BME280;63361;52.384;20.930;2023-04-01T09:32:03;98837.94;;;13.33;100.00
74834;BME280;63361;52.384;20.930;2023-04-01T09:37:51;98831.47;;;14.23;100.00
74834;BME280;63361;52.384;20.930;2023-04-01T09:43:20;98837.50;;;13.80;100.00
74834;BME280;63361;52.384;20.930;2023-04-01T09:46:01;98835.03;;;13.62;100.00
74834;BME280;63361;52.384;20.930;2023-04-01T09:57:21;98829.72;;;13.42;100.00
74834;BME280;63361;52.384;20.930;2023-04-01T10:27:45;98838.63;;;21.18;72.72
74834;BME280;63361;52.384;20.930;2023-04-01T10:35:50;98840.94;;;17.35;81.00
74834;BME280;63361;52.384;20.930;2023-04-01T10:38:49;98835.59;;;15.56;87.29
74834;BME280;63361;52.384;20.930;2023-04-01T10:44:26;98846.91;;;13.82;97.22
74834;BME280;63361;52.384;20.930;2023-04-01T11:37:18;98873.34;;;13.73;100.00
74834;BME280;63361;52.384;20.930;2023-04-01T11:40:14;98869.25;;;13.55;100.00
74834;BME280;63361;52.384;20.930;2023-04-01T11:45:49;98859.53;;;13.90;100.00
74834;BME280;63361;52.384;20.930;2023-04-01T11:48:45;98848.25;;;13.64;100.00
74834;BME280;63361;52.384;20.930;2023-04-01T12:05:41;98869.44;;;13.37;100.00
74834;BME280;63361;52.384;20.930;2023-04-01T12:11:00;98874.81;;;13.58;100.00
74834;BME280;63361;52.384;20.930;2023-04-01T12:13:42;98872.44;;;13.57;100.00
74834;BME280;63361;52.384;20.930;2023-04-01T12:16:40;98877.19;;;13.96;100.00
74834;BME280;63361;52.384;20.930;2023-04-01T12:19:15;98857.41;;;13.84;100.00
74834;BME280;63361;52.384;20.930;2023-04-01T12:21:58;98875.16;;;13.69;100.00
74834;BME280;63361;52.384;20.930;2023-04-01T12:24:29;98880.03;;;13.30;100.00
74834;BME280;63361;52.384;20.930;2023-04-01T12:27:02;98891.72;;;12.89;100.00
74834;BME280;63361;52.384;20.930;2023-04-01T12:32:27;98887.78;;;11.40;100.00
74834;BME280;63361;52.384;20.930;2023-04-01T12:40:46;98879.47;;;10.64;100.00
74834;BME280;63361;52.384;20.930;2023-04-01T12:46:25;98900.38;;;11.18;100.00
74834;BME280;63361;52.384;20.930;2023-04-01T12:53:03;98902.72;;;11.37;100.00
74834;BME280;63361;52.384;20.930;2023-04-01T13:09:39;98922.47;;;11.12;100.00
74834;BME280;63361;52.384;20.930;2023-04-01T13:12:32;98922.94;;;11.14;100.00
74834;BME280;63361;52.384;20.930;2023-04-01T13:15:10;98919.28;;;11.27;100.00
74834;BME280;63361;52.384;20.930;2023-04-01T13:17:56;98915.66;;;11.14;100.00
74834;BME280;63361;52.384;20.930;2023-04-01T13:20:34;98921.84;;;10.89;100.00
74834;BME280;63361;52.384;20.930;2023-04-01T13:23:14;98915.47;;;10.59;100.00
74834;BME280;63361;52.384;20.930;2023-04-01T13:28:30;98915.13;;;10.35;100.00
74834;BME280;63361;52.384;20.930;2023-04-01T13:36:35;98930.66;;;10.29;100.00
74834;BME280;63361;52.384;20.930;2023-04-01T13:44:43;98950.88;;;10.49;100.00
74834;BME280;63361;52.384;20.930;2023-04-01T13:47:32;98964.44;;;10.27;100.00
74834;BME280;63361;52.384;20.930;2023-04-01T14:01:06;98971.03;;;9.72;100.00
74834;BME280;63361;52.384;20.930;2023-04-01T14:25:17;98994.97;;;9.07;100.00
74834;BME280;63361;52.384;20.930;2023-04-01T14:36:59;99007.75;;;8.88;100.00
74834;BME280;63361;52.384;20.930;2023-04-01T14:42:21;99005.88;;;8.88;100.00
74834;BME280;63361;52.384;20.930;2023-04-01T14:50:13;99016.28;;;9.03;100.00
74834;BME280;63361;52.384;20.930;2023-04-01T14:52:42;99019.00;;;9.03;100.00
74834;BME280;63361;52.384;20.930;2023-04-01T14:55:25;99038.72;;;9.12;100.00
74834;BME280;63361;52.384;20.930;2023-04-01T14:58:04;99024.75;;;9.10;100.00
74834;BME280;63361;52.384;20.930;2023-04-01T15:00:50;99043.09;;;9.08;100.00
74834;BME280;63361;52.384;20.930;2023-04-01T15:03:29;99038.75;;;8.99;100.00
74834;BME280;63361;52.384;20.930;2023-04-01T15:17:02;99053.44;;;8.65;100.00
74834;BME280;63361;52.384;20.930;2023-04-01T15:20:07;99072.38;;;8.74;100.00
74834;BME280;63361;52.384;20.930;2023-04-01T15:28:01;99062.47;;;8.97;100.00
74834;BME280;63361;52.384;20.930;2023-04-01T15:36:36;99095.66;;;9.06;100.00
74834;BME280;63361;52.384;20.930;2023-04-01T15:39:19;99076.63;;;8.89;100.00
74834;BME280;63361;52.384;20.930;2023-04-01T15:42:04;99088.56;;;9.10;100.00
74834;BME280;63361;52.384;20.930;2023-04-01T16:00:28;99111.81;;;8.65;100.00
74834;BME280;63361;52.384;20.930;2023-04-01T16:06:01;99128.78;;;8.65;100.00
74834;BME280;63361;52.384;20.930;2023-04-01T16:14:14;99131.66;;;8.55;100.00
74834;BME280;63361;52.384;20.930;2023-04-01T16:16:58;99146.59;;;8.61;100.00
74834;BME280;63361;52.384;20.930;2023-04-01T16:19:41;99163.22;;;8.63;100.00
74834;BME280;63361;52.384;20.930;2023-04-01T16:22:21;99161.44;;;8.59;100.00
74834;BME280;63361;52.384;20.930;2023-04-01T16:33:27;99174.38;;;8.57;100.00
74834;BME280;63361;52.384;20.930;2023-04-01T16:36:07;99174.97;;;8.54;100.00
74834;BME280;63361;52.384;20.930;2023-04-01T16:38:39;99186.03;;;8.52;100.00
74834;BME280;63361;52.384;20.930;2023-04-01T16:41:24;99192.78;;;8.50;100.00
74834;BME280;63361;52.384;20.930;2023-04-01T16:43:53;99187.50;;;8.44;100.00
74834;BME280;63361;52.384;20.930;2023-04-01T16:46:28;99193.09;;;8.29;100.00
74834;BME280;63361;52.384;20.930;2023-04-01T16:51:32;99198.88;;;8.23;100.00
74834;BME280;63361;52.384;20.930;2023-04-01T16:54:12;99220.56;;;8.26;100.00
74834;BME280;63361;52.384;20.930;2023-04-01T16:56:44;99211.66;;;8.12;100.00
74834;BME280;63361;52.384;20.930;2023-04-01T17:01:53;99235.84;;;8.12;100.00
74834;BME280;63361;52.384;20.930;2023-04-01T17:04:25;99238.69;;;8.02;100.00
74834;BME280;63361;52.384;20.930;2023-04-01T17:07:31;99241.03;;;8.08;100.00
74834;BME280;63361;52.384;20.930;2023-04-01T17:18:44;99262.22;;;7.91;100.00
74834;BME280;63361;52.384;20.930;2023-04-01T17:23:51;99266.63;;;7.82;100.00
74834;BME280;63361;52.384;20.930;2023-04-01T17:29:18;99268.38;;;7.73;100.00
74834;BME280;63361;52.384;20.930;2023-04-01T17:39:51;99288.13;;;7.63;100.00
74834;BME280;63361;52.384;20.930;2023-04-01T17:42:22;99296.47;;;7.62;100.00
74834;BME280;63361;52.384;20.930;2023-04-01T17:49:59;99314.22;;;7.58;100.00
74834;BME280;63361;52.384;20.930;2023-04-01T17:52:36;99307.88;;;7.49;100.00
74834;BME280;63361;52.384;20.930;2023-04-01T18:03:11;99335.38;;;7.40;100.00
74834;BME280;63361;52.384;20.930;2023-04-01T18:11:23;99346.63;;;7.43;100.00
74834;BME280;63361;52.384;20.930;2023-04-01T18:20:02;99342.63;;;7.40;100.00
74834;BME280;63361;52.384;20.930;2023-04-01T18:22:54;99366.91;;;7.54;100.00
74834;BME280;63361;52.384;20.930;2023-04-01T18:25:28;99365.84;;;7.50;100.00
74834;BME280;63361;52.384;20.930;2023-04-01T18:30:51;99377.91;;;7.52;100.00
74834;BME280;63361;52.384;20.930;2023-04-01T18:42:00;99402.19;;;7.42;100.00
74834;BME280;63361;52.384;20.930;2023-04-01T18:44:48;99400.31;;;7.43;100.00
74834;BME280;63361;52.384;20.930;2023-04-01T18:47:40;99390.97;;;7.35;100.00
74834;BME280;63361;52.384;20.930;2023-04-01T18:50:33;99407.31;;;7.38;100.00
74834;BME280;63361;52.384;20.930;2023-04-01T18:53:34;99403.84;;;7.38;100.00
74834;BME280;63361;52.384;20.930;2023-04-01T19:06:48;99425.03;;;7.39;100.00
74834;BME280;63361;52.384;20.930;2023-04-01T19:09:24;99428.00;;;7.38;100.00
74834;BME280;63361;52.384;20.930;2023-04-01T19:21:16;99446.00;;;7.37;100.00
74834;BME280;63361;52.384;20.930;2023-04-01T19:26:10;99399.88;;;7.01;100.00
74834;BME280;63361;52.384;20.930;2023-04-01T19:36:50;99444.31;;;7.18;100.00
74834;BME280;63361;52.384;20.930;2023-04-01T19:44:38;99470.53;;;7.26;100.00
74834;BME280;63361;52.384;20.930;2023-04-01T19:47:20;99473.75;;;7.23;100.00
74834;BME280;63361;52.384;20.930;2023-04-01T19:49:53;99480.03;;;7.13;100.00
74834;BME280;63361;52.384;20.930;2023-04-01T19:52:43;99435.72;;;6.77;100.00
74834;BME280;63361;52.384;20.930;2023-04-01T20:00:54;99495.44;;;6.92;100.00
74834;BME280;63361;52.384;20.930;2023-04-01T20:06:03;99500.84;;;6.87;100.00
74834;BME280;63361;52.384;20.930;2023-04-01T20:24:51;99506.09;;;6.58;100.00
74834;BME280;63361;52.384;20.930;2023-04-01T20:27:22;99513.06;;;6.59;100.00
74834;BME280;63361;52.384;20.930;2023-04-01T20:32:44;99524.03;;;6.63;100.00
74834;BME280;63361;52.384;20.930;2023-04-01T20:37:56;99514.75;;;6.40;100.00
74834;BME280;63361;52.384;20.930;2023-04-01T20:40:35;99528.13;;;6.45;100.00
74834;BME280;63361;52.384;20.930;2023-04-01T20:43:10;99523.00;;;6.54;100.00
74834;BME280;63361;52.384;20.930;2023-04-01T20:46:06;99507.00;;;6.39;100.00
74834;BME280;63361;52.384;20.930;2023-04-01T20:51:29;99511.03;;;6.31;100.00
74834;BME280;63361;52.384;20.930;2023-04-01T20:56:35;99523.31;;;6.42;100.00
74834;BME280;63361;52.384;20.930;2023-04-01T21:07:21;99546.88;;;6.45;100.00
74834;BME280;63361;52.384;20.930;2023-04-01T21:21:07;99555.19;;;6.54;100.00
74834;BME280;63361;52.384;20.930;2023-04-01T21:23:56;99566.19;;;6.52;100.00
74834;BME280;63361;52.384;20.930;2023-04-01T21:32:25;99580.88;;;6.60;100.00
74834;BME280;63361;52.384;20.930;2023-04-01T21:35:02;99583.03;;;6.63;100.00
74834;BME280;63361;52.384;20.930;2023-04-01T21:37:48;99583.03;;;6.63;100.00
74834;BME280;63361;52.384;20.930;2023-04-01T21:40:30;99590.56;;;6.56;100.00
74834;BME280;63361;52.384;20.930;2023-04-01T21:51:36;99609.88;;;6.43;100.00
74834;BME280;63361;52.384;20.930;2023-04-01T21:54:31;99607.25;;;6.32;100.00
74834;BME280;63361;52.384;20.930;2023-04-01T21:57:37;99627.34;;;6.35;100.00
74834;BME280;63361;52.384;20.930;2023-04-01T22:00:19;99625.19;;;6.37;100.00
74834;BME280;63361;52.384;20.930;2023-04-01T22:05:31;99619.03;;;6.26;100.00
74834;BME280;63361;52.384;20.930;2023-04-01T22:10:49;99629.22;;;6.29;100.00
74834;BME280;63361;52.384;20.930;2023-04-01T22:16:12;99641.28;;;6.32;100.00
74834;BME280;63361;52.384;20.930;2023-04-01T22:21:38;99633.53;;;6.25;100.00
74834;BME280;63361;52.384;20.930;2023-04-01T22:24:17;99635.38;;;6.30;100.00
74834;BME280;63361;52.384;20.930;2023-04-01T22:26:52;99635.41;;;6.25;100.00